createdAt,value
2022-08-09T00:02:30.483Z,25.70
2022-08-09T00:07:44.856Z,25.60
2022-08-09T00:12:47.411Z,25.50
2022-08-09T00:18:09.424Z,25.40
2022-08-09T00:23:54.641Z,25.40
2022-08-09T00:28:37.042Z,25.30
2022-08-09T00:33:51.274Z,25.20
2022-08-09T00:38:54.295Z,25.20
2022-08-09T00:44:20.314Z,25.10
2022-08-09T00:49:18.819Z,25.00
2022-08-09T00:54:31.470Z,24.90
2022-08-09T00:59:46.494Z,24.80
2022-08-09T01:04:52.756Z,24.70
2022-08-09T01:10:02.721Z,24.70
2022-08-09T01:15:09.999Z,24.70
2022-08-09T01:20:27.587Z,24.60
2022-08-09T01:25:31.877Z,24.70
2022-08-09T01:30:51.544Z,24.70
2022-08-09T01:35:59.309Z,24.70
2022-08-09T01:41:07.959Z,24.70
2022-08-09T01:46:12.465Z,24.60
2022-08-09T01:51:27.224Z,24.60
2022-08-09T01:56:37.444Z,24.70
2022-08-09T02:01:59.405Z,24.70
2022-08-09T02:07:18.286Z,24.80
2022-08-09T02:12:35.256Z,24.80
2022-08-09T02:18:01.236Z,24.90
2022-08-09T02:23:12.262Z,24.90
2022-08-09T02:28:19.335Z,24.90
2022-08-09T02:33:58.066Z,24.80
2022-08-09T02:38:51.943Z,24.80
2022-08-09T02:43:57.316Z,24.90
2022-08-09T02:49:03.096Z,24.90
2022-08-09T02:54:08.052Z,24.90
2022-08-09T02:59:14.854Z,24.70
2022-08-09T03:04:29.677Z,24.60
2022-08-09T03:09:33.663Z,24.50
2022-08-09T03:14:36.709Z,24.50
2022-08-09T03:19:57.967Z,24.50
2022-08-09T03:25:13.621Z,24.30
2022-08-09T03:30:29.183Z,24.30
2022-08-09T03:36:11.465Z,24.10
2022-08-09T03:40:55.234Z,24.10
2022-08-09T03:46:13.626Z,24.00
2022-08-09T03:51:55.185Z,24.00
2022-08-09T03:56:46.581Z,23.90
2022-08-09T04:01:51.137Z,24.00
2022-08-09T04:06:53.557Z,24.00
2022-08-09T04:12:11.935Z,24.00
2022-08-09T04:17:14.596Z,24.00
2022-08-09T04:22:18.767Z,24.00
2022-08-09T04:27:23.827Z,24.10
2022-08-09T04:32:31.635Z,24.20
2022-08-09T04:37:42.040Z,24.20
2022-08-09T04:42:48.851Z,24.20
2022-08-09T04:48:01.195Z,24.30
2022-08-09T04:53:13.089Z,24.50
2022-08-09T04:58:16.271Z,24.40
2022-08-09T05:03:40.169Z,24.50
2022-08-09T05:08:43.850Z,24.60
2022-08-09T05:13:50.255Z,24.70
2022-08-09T05:18:59.148Z,24.80
2022-08-09T05:24:03.934Z,25.00
2022-08-09T05:29:07.185Z,25.30
2022-08-09T05:34:20.282Z,25.50
2022-08-09T05:39:29.006Z,25.70
2022-08-09T05:44:34.787Z,25.90
2022-08-09T05:50:30.731Z,26.20
2022-08-09T05:55:03.002Z,26.40
2022-08-09T06:00:10.472Z,26.70
2022-08-09T06:05:14.485Z,26.90
2022-08-09T06:10:18.752Z,27.30
2022-08-09T06:15:21.733Z,27.50
2022-08-09T06:20:24.304Z,27.70
2022-08-09T06:25:26.757Z,27.80
2022-08-09T06:30:29.187Z,28.00
2022-08-09T06:35:55.849Z,28.30
2022-08-09T06:40:55.024Z,28.50
2022-08-09T06:46:04.799Z,28.70
2022-08-09T06:51:13.031Z,29.10
2022-08-09T06:56:17.207Z,29.40
2022-08-09T07:01:21.485Z,30.00
2022-08-09T07:06:28.027Z,30.90
2022-08-09T07:11:34.356Z,32.10
2022-08-09T07:16:57.974Z,35.50
2022-08-09T07:22:01.013Z,38.60
2022-08-09T07:27:04.651Z,39.50
2022-08-09T07:32:23.575Z,38.50
2022-08-09T07:37:42.951Z,37.50
2022-08-09T07:42:50.112Z,36.40
2022-08-09T07:48:00.643Z,35.80
2022-08-09T07:53:04.469Z,35.40
2022-08-09T07:58:13.275Z,35.10
2022-08-09T08:03:17.148Z,34.90
2022-08-09T08:09:00.310Z,34.80
2022-08-09T08:13:56.215Z,34.60
2022-08-09T08:19:03.275Z,34.00
2022-08-09T08:24:12.193Z,34.00
2022-08-09T08:29:20.116Z,33.70
2022-08-09T08:34:29.813Z,33.30
2022-08-09T08:39:39.790Z,33.10
2022-08-09T08:44:47.667Z,32.80
2022-08-09T08:49:50.667Z,32.70
2022-08-09T08:54:55.602Z,32.80
2022-08-09T08:59:57.906Z,33.00
2022-08-09T09:05:06.007Z,33.10
2022-08-09T09:10:12.429Z,33.10
2022-08-09T09:15:28.267Z,33.10
2022-08-09T09:20:34.927Z,32.60
2022-08-09T09:26:03.951Z,32.50
2022-08-09T09:31:06.051Z,32.60
2022-08-09T09:36:20.869Z,32.80
2022-08-09T09:41:26.359Z,32.80
2022-08-09T09:46:42.972Z,32.20
2022-08-09T09:51:51.278Z,31.90
2022-08-09T09:58:02.378Z,31.90
2022-08-09T10:02:18.791Z,31.60
2022-08-09T10:07:26.928Z,31.70
2022-08-09T10:12:33.853Z,31.60
2022-08-09T10:17:51.253Z,31.50
2022-08-09T10:23:02.277Z,31.50
2022-08-09T10:28:04.899Z,31.60
2022-08-09T10:33:08.295Z,31.40
2022-08-09T10:38:54.620Z,31.30
2022-08-09T10:44:01.357Z,31.50
2022-08-09T10:49:24.224Z,31.70
2022-08-09T10:54:48.564Z,31.70
2022-08-09T10:59:57.360Z,32.00
2022-08-09T11:05:24.839Z,31.80
2022-08-09T11:10:53.282Z,31.40
2022-08-09T11:16:37.195Z,31.50
2022-08-09T11:22:16.625Z,31.40
2022-08-09T11:28:02.985Z,31.50
2022-08-09T11:32:53.776Z,31.80
2022-08-09T11:37:59.356Z,32.00
2022-08-09T11:43:01.780Z,32.10
2022-08-09T11:48:26.733Z,32.10
2022-08-09T11:53:57.972Z,32.30
2022-08-09T11:58:54.428Z,32.20
2022-08-09T12:04:04.365Z,31.90
2022-08-09T12:09:17.559Z,31.70
2022-08-09T12:14:48.848Z,31.60
2022-08-09T12:19:52.567Z,31.30
2022-08-09T12:25:36.017Z,31.40
2022-08-09T12:30:40.839Z,31.40
2022-08-09T12:35:44.275Z,31.30
2022-08-09T12:40:52.296Z,31.20
2022-08-09T12:46:00.413Z,31.10
2022-08-09T12:51:04.544Z,31.30
2022-08-09T12:56:43.647Z,31.40
2022-08-09T13:01:42.869Z,31.30
2022-08-09T13:06:51.471Z,31.20
2022-08-09T13:12:02.463Z,31.20
2022-08-09T13:17:15.818Z,31.10
2022-08-09T13:22:38.384Z,30.80
2022-08-09T13:27:54.703Z,30.80
2022-08-09T13:32:58.528Z,30.60
2022-08-09T13:38:02.362Z,30.70
2022-08-09T13:43:05.301Z,30.80
2022-08-09T13:48:12.124Z,31.10
2022-08-09T13:53:17.402Z,31.30
2022-08-09T13:58:19.812Z,31.50
2022-08-09T14:04:03.414Z,31.50
2022-08-09T14:08:45.243Z,31.50
2022-08-09T14:14:22.823Z,31.50
2022-08-09T14:19:33.624Z,31.60
2022-08-09T14:24:36.049Z,31.60
2022-08-09T14:30:34.036Z,31.50
2022-08-09T14:35:05.687Z,31.50
2022-08-09T14:40:09.001Z,31.50
2022-08-09T14:46:46.657Z,31.50
2022-08-09T14:50:37.047Z,31.50
2022-08-09T14:55:42.059Z,31.40
2022-08-09T15:00:44.806Z,31.10
2022-08-09T15:05:55.512Z,31.20
2022-08-09T15:11:05.012Z,31.20
2022-08-09T15:16:09.991Z,31.30
2022-08-09T15:21:58.779Z,31.30
2022-08-09T15:26:34.907Z,31.10
2022-08-09T15:31:41.648Z,30.80
2022-08-09T15:36:48.239Z,30.60
2022-08-09T15:41:50.895Z,30.40
2022-08-09T15:46:53.171Z,30.40
2022-08-09T15:52:05.078Z,30.30
2022-08-09T15:57:09.543Z,30.40
2022-08-09T16:02:13.301Z,30.40
2022-08-09T16:07:16.248Z,30.50
2022-08-09T16:12:19.852Z,30.40
2022-08-09T16:17:22.305Z,30.40
2022-08-09T16:22:25.159Z,30.30
2022-08-09T16:27:30.208Z,30.40
2022-08-09T16:32:53.599Z,30.50
2022-08-09T16:37:56.980Z,30.40
2022-08-09T16:43:02.396Z,30.40
2022-08-09T16:48:43.281Z,30.40
2022-08-09T16:53:33.834Z,30.40
2022-08-09T16:58:39.854Z,30.50
2022-08-09T17:03:52.927Z,30.50
2022-08-09T17:08:59.036Z,30.50
2022-08-09T17:14:07.775Z,30.40
2022-08-09T17:19:10.611Z,30.30
2022-08-09T17:24:27.972Z,30.30
2022-08-09T17:29:37.928Z,30.20
2022-08-09T17:35:01.454Z,30.10
2022-08-09T17:40:06.827Z,30.00
2022-08-09T17:45:27.247Z,29.90
2022-08-09T17:50:40.667Z,29.80
2022-08-09T17:55:57.597Z,29.80
2022-08-09T18:01:03.496Z,29.70
2022-08-09T18:06:06.576Z,29.70
2022-08-09T18:11:17.356Z,29.60
2022-08-09T18:16:29.348Z,29.60
2022-08-09T18:21:40.809Z,29.50
2022-08-09T18:26:46.349Z,29.40
2022-08-09T18:31:55.027Z,29.40
2022-08-09T18:36:58.933Z,29.40
2022-08-09T18:42:08.179Z,29.30
2022-08-09T18:47:15.844Z,29.30
2022-08-09T18:52:24.837Z,29.30
2022-08-09T18:57:38.573Z,29.10
2022-08-09T19:02:46.033Z,29.20
2022-08-09T19:08:04.443Z,29.10
2022-08-09T19:13:22.104Z,29.10
2022-08-09T19:18:33.998Z,28.90
2022-08-09T19:24:35.611Z,28.90
2022-08-09T19:29:09.744Z,28.70
2022-08-09T19:34:22.298Z,28.60
2022-08-09T19:39:28.937Z,28.60
2022-08-09T19:44:50.712Z,28.50
2022-08-09T19:50:05.109Z,28.40
2022-08-09T19:55:15.816Z,28.30
2022-08-09T20:00:21.808Z,28.20
2022-08-09T20:05:25.040Z,28.10
2022-08-09T20:10:34.693Z,28.00
2022-08-09T20:16:37.271Z,27.90
2022-08-09T20:21:01.901Z,27.90
2022-08-09T20:26:04.736Z,27.70
2022-08-09T20:31:09.370Z,27.70
2022-08-09T20:36:16.064Z,27.70
2022-08-09T20:41:34.974Z,27.70
2022-08-09T20:46:44.377Z,27.50
2022-08-09T20:51:50.387Z,27.40
2022-08-09T20:56:53.899Z,27.40
2022-08-09T21:01:56.504Z,27.40
2022-08-09T21:06:58.849Z,27.30
2022-08-09T21:18:21.908Z,27.50
2022-08-09T21:22:38.413Z,27.40
2022-08-09T21:27:52.563Z,27.40
2022-08-09T21:32:55.441Z,27.40
2022-08-09T21:38:00.662Z,27.40
2022-08-09T21:43:06.112Z,27.40
2022-08-09T21:48:08.658Z,27.40
2022-08-09T21:53:15.612Z,27.30
2022-08-09T21:58:29.145Z,27.30
2022-08-09T22:03:33.911Z,27.10
2022-08-09T22:08:50.479Z,27.00
2022-08-09T22:13:53.339Z,26.70
2022-08-09T22:18:55.747Z,26.60
2022-08-09T22:24:01.924Z,26.50
2022-08-09T22:29:07.401Z,26.40
2022-08-09T22:34:15.000Z,26.20
2022-08-09T22:39:46.917Z,26.00
2022-08-09T22:44:45.054Z,25.90
2022-08-09T22:49:51.927Z,25.90
2022-08-09T22:54:54.575Z,25.80
2022-08-09T22:59:59.416Z,25.80
2022-08-09T23:05:02.165Z,25.80
2022-08-09T23:10:08.515Z,25.80
2022-08-09T23:15:11.023Z,25.70
2022-08-09T23:20:13.304Z,25.60
2022-08-09T23:25:15.577Z,25.60
2022-08-09T23:30:18.497Z,25.60
2022-08-09T23:35:20.816Z,25.50
2022-08-09T23:40:23.393Z,25.40
2022-08-09T23:45:37.073Z,25.30
2022-08-09T23:50:40.846Z,25.20
2022-08-09T23:55:49.686Z,25.10
